createdAt,value
2019-03-17T00:00:58.926Z,76.77
2019-03-17T00:02:52.329Z,77.09
2019-03-17T00:03:52.337Z,77.15
2019-03-17T00:05:45.236Z,76.96
2019-03-17T00:06:45.251Z,76.96
2019-03-17T00:08:38.160Z,77.06
2019-03-17T00:09:38.166Z,77.38
2019-03-17T00:11:31.067Z,76.86
2019-03-17T00:12:31.654Z,76.86
2019-03-17T00:14:23.990Z,77.15
2019-03-17T00:15:23.995Z,77.19
2019-03-17T00:17:16.897Z,77.15
2019-03-17T00:18:16.909Z,77.15
2019-03-17T00:20:09.819Z,77.25
2019-03-17T00:21:09.824Z,76.86
2019-03-17T00:23:03.227Z,77.06
2019-03-17T00:24:03.235Z,77.06
2019-03-17T00:25:56.137Z,77.34
2019-03-17T00:26:56.150Z,77.38
2019-03-17T00:28:49.060Z,77.09
2019-03-17T00:29:49.078Z,76.90
2019-03-17T00:31:42.462Z,77.06
2019-03-17T00:32:42.474Z,77.00
2019-03-17T00:34:44.068Z,77.00
2019-03-17T00:35:35.395Z,77.28
2019-03-17T00:37:28.298Z,77.15
2019-03-17T00:38:28.310Z,77.34
2019-03-17T00:40:21.219Z,76.96
2019-03-17T00:41:21.222Z,76.96
2019-03-17T00:43:14.125Z,77.62
2019-03-17T00:44:14.139Z,77.62
2019-03-17T00:46:07.046Z,77.57
2019-03-17T00:47:07.051Z,77.38
2019-03-17T00:48:59.959Z,77.53
2019-03-17T00:49:59.964Z,77.25
2019-03-17T00:51:52.907Z,77.25
2019-03-17T00:52:52.880Z,77.15
2019-03-17T00:54:45.790Z,77.15
2019-03-17T00:55:45.797Z,77.53
2019-03-17T00:57:38.700Z,77.72
2019-03-17T00:58:38.715Z,77.72
2019-03-17T01:00:31.622Z,77.82
2019-03-17T01:01:31.627Z,77.82
2019-03-17T01:03:25.023Z,77.72
2019-03-17T01:04:25.037Z,77.53
2019-03-17T01:06:18.439Z,77.34
2019-03-17T01:07:18.446Z,77.82
2019-03-17T01:09:11.354Z,77.44
2019-03-17T01:10:11.359Z,77.72
2019-03-17T01:12:04.267Z,77.44
2019-03-17T01:13:04.280Z,77.67
2019-03-17T01:14:57.185Z,77.34
2019-03-17T01:15:57.191Z,77.25
2019-03-17T01:17:50.092Z,77.34
2019-03-17T01:18:50.106Z,77.57
2019-03-17T01:20:43.011Z,77.09
2019-03-17T01:21:43.019Z,77.25
2019-03-17T01:23:35.926Z,77.25
2019-03-17T01:24:35.935Z,77.15
2019-03-17T01:26:29.327Z,77.00
2019-03-17T01:27:29.345Z,77.25
2019-03-17T01:29:22.256Z,77.44
2019-03-17T01:30:22.259Z,77.72
2019-03-17T01:32:15.160Z,77.19
2019-03-17T01:33:15.171Z,76.96
2019-03-17T01:35:09.493Z,76.96
2019-03-17T01:36:08.148Z,76.90
2019-03-17T01:38:00.986Z,77.34
2019-03-17T01:39:01.001Z,76.86
2019-03-17T01:40:54.402Z,77.34
2019-03-17T01:41:54.410Z,77.34
2019-03-17T01:43:47.813Z,78.30
2019-03-17T01:44:47.819Z,78.01
2019-03-17T01:46:41.718Z,78.10
2019-03-17T01:47:41.730Z,78.10
2019-03-17T01:49:34.640Z,77.91
2019-03-17T01:50:34.644Z,78.01
2019-03-17T01:52:27.546Z,78.39
2019-03-17T01:53:27.562Z,78.49
2019-03-17T01:55:20.468Z,78.49
2019-03-17T01:56:20.471Z,78.30
2019-03-17T01:58:13.377Z,78.30
2019-03-17T01:59:13.386Z,78.39
2019-03-17T02:01:06.303Z,78.64
2019-03-17T02:02:06.301Z,78.49
2019-03-17T02:03:59.207Z,78.64
2019-03-17T02:04:59.212Z,78.16
2019-03-17T02:06:52.114Z,78.54
2019-03-17T02:07:52.125Z,77.78
2019-03-17T02:09:45.034Z,78.35
2019-03-17T02:10:45.040Z,78.44
2019-03-17T02:12:39.077Z,78.64
2019-03-17T02:13:39.089Z,78.44
2019-03-17T02:15:31.998Z,78.92
2019-03-17T02:16:32.004Z,78.73
2019-03-17T02:18:24.901Z,79.11
2019-03-17T02:19:24.915Z,79.30
2019-03-17T02:21:17.821Z,79.11
2019-03-17T02:22:17.827Z,79.49
2019-03-17T02:24:10.742Z,79.49
2019-03-17T02:25:10.739Z,79.59
2019-03-17T02:27:03.643Z,79.88
2019-03-17T02:28:03.655Z,79.78
2019-03-17T02:29:56.566Z,79.88
2019-03-17T02:30:56.568Z,79.59
2019-03-17T02:32:49.470Z,79.49
2019-03-17T02:33:49.482Z,79.59
2019-03-17T02:35:42.450Z,79.49
2019-03-17T02:36:42.394Z,79.82
2019-03-17T02:38:35.299Z,79.44
2019-03-17T02:39:35.310Z,79.02
2019-03-17T02:41:28.219Z,78.96
2019-03-17T02:42:28.229Z,79.15
2019-03-17T02:44:21.130Z,78.20
2019-03-17T02:45:21.135Z,78.77
2019-03-17T02:47:14.532Z,78.67
2019-03-17T02:48:14.544Z,78.58
2019-03-17T02:50:07.453Z,78.20
2019-03-17T02:51:07.460Z,78.20
2019-03-17T02:53:00.803Z,78.01
2019-03-17T02:54:00.377Z,78.30
2019-03-17T02:55:53.283Z,77.91
2019-03-17T02:56:53.284Z,78.10
2019-03-17T02:58:46.184Z,77.91
2019-03-17T02:59:46.204Z,78.30
2019-03-17T03:01:39.107Z,77.72
2019-03-17T03:02:39.116Z,78.10
2019-03-17T03:04:32.025Z,78.20
2019-03-17T03:05:32.030Z,78.01
2019-03-17T03:07:24.934Z,78.01
2019-03-17T03:08:24.942Z,77.91
2019-03-17T03:10:17.854Z,77.53
2019-03-17T03:11:17.862Z,77.25
2019-03-17T03:13:10.760Z,77.62
2019-03-17T03:14:10.771Z,77.44
2019-03-17T03:16:05.793Z,77.15
2019-03-17T03:17:03.685Z,77.25
2019-03-17T03:18:56.589Z,77.34
2019-03-17T03:19:56.604Z,77.34
2019-03-17T03:21:49.508Z,76.96
2019-03-17T03:22:49.515Z,77.06
2019-03-17T03:24:42.422Z,77.06
2019-03-17T03:25:42.430Z,76.77
2019-03-17T03:27:35.330Z,76.96
2019-03-17T03:28:35.342Z,77.34
2019-03-17T03:30:28.265Z,77.15
2019-03-17T03:31:28.258Z,77.06
2019-03-17T03:33:21.160Z,76.67
2019-03-17T03:34:21.181Z,76.67
2019-03-17T03:36:14.573Z,76.39
2019-03-17T03:37:14.582Z,76.77
2019-03-17T03:39:07.482Z,76.77
2019-03-17T03:40:07.492Z,76.57
2019-03-17T03:42:00.643Z,76.57
2019-03-17T03:43:00.526Z,76.67
2019-03-17T03:44:53.318Z,76.10
2019-03-17T03:45:53.321Z,76.01
2019-03-17T03:47:46.225Z,75.91
2019-03-17T03:48:46.235Z,76.29
2019-03-17T03:50:39.142Z,75.91
2019-03-17T03:51:39.149Z,76.10
2019-03-17T03:53:32.050Z,76.10
2019-03-17T03:54:32.069Z,76.10
2019-03-17T03:56:25.469Z,76.01
2019-03-17T03:57:25.475Z,75.81
2019-03-17T03:59:18.377Z,75.81
2019-03-17T04:00:18.388Z,76.01
2019-03-17T04:02:12.791Z,76.20
2019-03-17T04:03:12.796Z,76.20
2019-03-17T04:05:05.711Z,76.10
2019-03-17T04:06:05.712Z,76.10
2019-03-17T04:07:58.619Z,76.01
2019-03-17T04:08:58.633Z,76.01
2019-03-17T04:10:51.538Z,76.01
2019-03-17T04:11:51.551Z,76.10
2019-03-17T04:13:44.447Z,76.10
2019-03-17T04:14:44.458Z,76.01
2019-03-17T04:16:37.368Z,76.10
2019-03-17T04:17:37.375Z,76.01
2019-03-17T04:19:30.280Z,76.10
2019-03-17T04:20:30.290Z,75.81
2019-03-17T04:22:23.202Z,76.20
2019-03-17T04:23:23.251Z,76.20
2019-03-17T04:25:16.143Z,75.91
2019-03-17T04:26:16.121Z,76.20
2019-03-17T04:28:09.024Z,75.91
2019-03-17T04:29:09.039Z,76.77
2019-03-17T04:31:01.949Z,77.15
2019-03-17T04:32:01.957Z,76.86
2019-03-17T04:33:54.853Z,77.62
2019-03-17T04:34:54.865Z,78.30
2019-03-17T04:36:47.775Z,77.72
2019-03-17T04:37:47.782Z,77.82
2019-03-17T04:39:40.682Z,77.44
2019-03-17T04:40:40.692Z,77.34
2019-03-17T04:42:33.600Z,76.96
2019-03-17T04:43:33.607Z,77.25
2019-03-17T04:45:26.517Z,77.15
2019-03-17T04:46:26.520Z,77.34
2019-03-17T04:48:19.421Z,77.06
2019-03-17T04:49:19.435Z,77.34
2019-03-17T04:51:12.849Z,77.15
2019-03-17T04:52:12.856Z,77.34
2019-03-17T04:54:05.796Z,76.96
2019-03-17T04:55:05.768Z,77.34
2019-03-17T04:56:58.678Z,77.34
2019-03-17T04:57:58.685Z,77.53
2019-03-17T04:59:51.584Z,77.62
2019-03-17T05:00:51.595Z,77.53
2019-03-17T05:02:44.506Z,77.53
2019-03-17T05:03:44.510Z,78.01
2019-03-17T05:05:37.423Z,78.58
2019-03-17T05:06:37.430Z,79.06
2019-03-17T05:08:30.329Z,80.01
2019-03-17T05:09:30.342Z,80.11
2019-03-17T05:11:23.251Z,80.30
2019-03-17T05:12:23.257Z,79.82
2019-03-17T05:14:16.160Z,80.49
2019-03-17T05:15:16.172Z,79.63
2019-03-17T05:17:09.084Z,80.39
2019-03-17T05:18:09.091Z,81.63
2019-03-17T05:20:02.094Z,82.20
2019-03-17T05:21:02.006Z,83.06
2019-03-17T05:22:54.905Z,83.78
2019-03-17T05:23:54.917Z,83.59
2019-03-17T05:25:47.828Z,84.45
2019-03-17T05:26:47.834Z,85.21
2019-03-17T05:28:40.738Z,85.41
2019-03-17T05:29:40.749Z,85.60
2019-03-17T05:31:33.657Z,85.60
2019-03-17T05:32:33.663Z,85.50
2019-03-17T05:34:26.569Z,87.21
2019-03-17T05:35:26.578Z,87.31
2019-03-17T05:37:19.490Z,87.69
2019-03-17T05:38:19.496Z,88.26
2019-03-17T05:40:13.396Z,88.64
2019-03-17T05:41:13.401Z,88.45
2019-03-17T05:43:06.322Z,89.12
2019-03-17T05:44:06.337Z,89.12
2019-03-17T05:45:59.225Z,89.31
2019-03-17T05:46:59.230Z,89.22
2019-03-17T05:48:52.129Z,89.79
2019-03-17T05:49:52.145Z,89.50
2019-03-17T05:51:45.051Z,89.84
2019-03-17T05:52:45.060Z,89.79
2019-03-17T05:54:37.977Z,90.17
2019-03-17T05:55:37.976Z,90.31
2019-03-17T05:57:30.882Z,90.41
2019-03-17T05:58:30.890Z,90.89
2019-03-17T06:00:23.796Z,90.79
2019-03-17T06:01:23.800Z,91.74
2019-03-17T06:03:16.702Z,91.74
2019-03-17T06:04:16.712Z,91.94
2019-03-17T06:06:09.624Z,91.65
2019-03-17T06:07:18.605Z,92.13
2019-03-17T06:09:02.532Z,92.41
2019-03-17T06:10:02.542Z,92.03
2019-03-17T06:11:55.449Z,92.22
2019-03-17T06:12:55.455Z,92.13
2019-03-17T06:14:48.360Z,92.13
2019-03-17T06:15:48.375Z,92.50
2019-03-17T06:17:41.284Z,92.69
2019-03-17T06:18:41.289Z,92.50
2019-03-17T06:20:34.201Z,92.50
2019-03-17T06:21:34.206Z,92.69
2019-03-17T06:23:27.104Z,93.27
2019-03-17T06:24:27.116Z,93.27
2019-03-17T06:26:20.020Z,93.65
2019-03-17T06:27:20.030Z,93.84
2019-03-17T06:29:13.422Z,94.13
2019-03-17T06:30:13.436Z,94.32
2019-03-17T06:32:06.344Z,93.84
2019-03-17T06:33:06.349Z,93.37
2019-03-17T06:34:59.261Z,93.55
2019-03-17T06:35:59.263Z,94.13
2019-03-17T06:37:52.167Z,94.13
2019-03-17T06:38:52.172Z,94.89
2019-03-17T06:40:45.089Z,94.98
2019-03-17T06:41:45.088Z,94.89
2019-03-17T06:43:37.991Z,94.93
2019-03-17T06:44:38.000Z,95.41
2019-03-17T06:46:30.907Z,96.36
2019-03-17T06:47:30.910Z,96.98
2019-03-17T06:49:23.814Z,96.55
2019-03-17T06:50:23.896Z,96.89
2019-03-17T06:52:16.729Z,97.84
2019-03-17T06:53:16.739Z,97.84
2019-03-17T06:55:09.637Z,97.56
2019-03-17T06:56:09.649Z,97.79
2019-03-17T06:58:02.560Z,98.03
2019-03-17T06:59:02.564Z,98.03
2019-03-17T07:00:55.470Z,97.41
2019-03-17T07:01:55.475Z,97.89
2019-03-17T07:03:48.376Z,97.56
2019-03-17T07:04:48.389Z,97.84
2019-03-17T07:06:41.296Z,97.79
2019-03-17T07:07:44.459Z,98.36
2019-03-17T07:09:34.201Z,98.46
2019-03-17T07:10:34.213Z,98.18
2019-03-17T07:12:27.122Z,98.27
2019-03-17T07:13:27.126Z,98.94
2019-03-17T07:15:20.044Z,98.65
2019-03-17T07:16:20.037Z,98.70
2019-03-17T07:18:12.947Z,98.70
2019-03-17T07:19:12.949Z,98.32
2019-03-17T07:21:06.349Z,98.55
2019-03-17T07:22:06.356Z,98.36
2019-03-17T07:23:59.259Z,98.36
2019-03-17T07:24:59.271Z,97.94
2019-03-17T07:26:52.178Z,98.74
2019-03-17T07:27:52.185Z,99.32
2019-03-17T07:29:45.082Z,99.27
2019-03-17T07:30:45.095Z,98.84
2019-03-17T07:32:38.003Z,98.74
2019-03-17T07:33:38.010Z,99.03
2019-03-17T07:35:30.909Z,99.60
2019-03-17T07:36:30.919Z,99.03
2019-03-17T07:38:23.833Z,99.03
2019-03-17T07:39:23.837Z,99.60
2019-03-17T07:41:16.743Z,99.41
2019-03-17T07:42:16.749Z,99.51
2019-03-17T07:44:09.647Z,99.98
2019-03-17T07:45:09.665Z,99.60
2019-03-17T07:47:02.566Z,99.89
2019-03-17T07:48:02.571Z,99.99
2019-03-17T07:49:55.473Z,99.99
2019-03-17T07:50:55.486Z,99.99
2019-03-17T07:52:48.389Z,99.99
2019-03-17T07:53:48.397Z,99.99
2019-03-17T07:55:41.295Z,99.99
2019-03-17T07:56:41.310Z,99.99
2019-03-17T07:58:34.214Z,99.99
2019-03-17T07:59:34.218Z,99.99
2019-03-17T08:01:27.126Z,99.99
2019-03-17T08:02:27.131Z,99.99
2019-03-17T08:04:20.041Z,99.99
2019-03-17T08:05:20.053Z,99.99
2019-03-17T08:07:12.996Z,99.99
2019-03-17T08:08:13.001Z,99.99
2019-03-17T08:10:05.998Z,98.22
2019-03-17T08:11:05.911Z,98.79
2019-03-17T08:12:59.313Z,98.46
2019-03-17T08:13:59.318Z,99.31
2019-03-17T08:15:52.235Z,98.22
2019-03-17T08:16:52.248Z,98.97
2019-03-17T08:18:45.174Z,99.55
2019-03-17T08:19:45.178Z,99.93
2019-03-17T08:21:38.086Z,99.99
2019-03-17T08:22:38.099Z,99.99
2019-03-17T08:24:31.490Z,98.12
2019-03-17T08:25:31.502Z,98.17
2019-03-17T08:27:24.413Z,98.55
2019-03-17T08:28:24.415Z,98.64
2019-03-17T08:30:17.327Z,97.60
2019-03-17T08:31:17.339Z,98.97
2019-03-17T08:33:10.230Z,98.88
2019-03-17T08:34:10.231Z,98.97
2019-03-17T08:36:03.131Z,99.93
2019-03-17T08:37:03.142Z,99.64
2019-03-17T08:38:56.048Z,99.16
2019-03-17T08:39:56.052Z,98.17
2019-03-17T08:41:48.963Z,97.50
2019-03-17T08:42:48.967Z,97.88
2019-03-17T08:44:41.868Z,95.60
2019-03-17T08:45:41.879Z,96.36
2019-03-17T08:47:34.788Z,97.03
2019-03-17T08:48:34.793Z,97.03
2019-03-17T08:50:27.694Z,96.94
2019-03-17T08:51:27.796Z,96.36
2019-03-17T08:53:20.613Z,97.88
2019-03-17T08:54:20.621Z,96.26
2019-03-17T08:56:13.523Z,96.84
2019-03-17T08:57:13.530Z,96.74
2019-03-17T08:59:06.931Z,96.46
2019-03-17T09:00:06.935Z,96.08
2019-03-17T09:01:59.851Z,96.84
2019-03-17T09:02:59.847Z,97.69
2019-03-17T09:04:52.960Z,97.17
2019-03-17T09:05:52.762Z,97.65
2019-03-17T09:07:46.183Z,93.84
2019-03-17T09:08:46.178Z,92.79
2019-03-17T09:10:39.076Z,93.08
2019-03-17T09:11:39.088Z,92.32
2019-03-17T09:13:32.065Z,92.89
2019-03-17T09:14:31.999Z,92.32
2019-03-17T09:16:24.915Z,90.42
2019-03-17T09:17:24.914Z,90.51
2019-03-17T09:19:17.853Z,90.51
2019-03-17T09:20:17.830Z,90.13
2019-03-17T09:22:10.766Z,89.79
2019-03-17T09:23:10.745Z,87.89
2019-03-17T09:25:03.652Z,88.18
2019-03-17T09:26:03.664Z,87.98
2019-03-17T09:27:56.573Z,84.84
2019-03-17T09:28:56.578Z,83.89
2019-03-17T09:30:49.481Z,84.75
2019-03-17T09:31:49.499Z,84.94
2019-03-17T09:33:42.405Z,84.75
2019-03-17T09:34:42.408Z,84.65
2019-03-17T09:36:35.378Z,85.60
2019-03-17T09:37:35.359Z,85.41
2019-03-17T09:39:28.285Z,83.65
2019-03-17T09:40:28.398Z,83.65
2019-03-17T09:42:21.259Z,83.84
2019-03-17T09:43:21.210Z,84.22
2019-03-17T09:45:14.117Z,83.65
2019-03-17T09:46:14.180Z,83.93
2019-03-17T09:48:07.060Z,82.21
2019-03-17T09:49:07.044Z,82.60
2019-03-17T09:50:59.951Z,83.17
2019-03-17T09:51:59.962Z,83.07
2019-03-17T09:53:52.876Z,83.93
2019-03-17T09:54:52.882Z,83.74
2019-03-17T09:56:46.073Z,83.88
2019-03-17T09:57:45.805Z,83.50
2019-03-17T09:59:38.709Z,81.68
2019-03-17T10:00:38.721Z,82.17
2019-03-17T10:02:31.635Z,82.92
2019-03-17T10:03:31.638Z,81.88
2019-03-17T10:05:24.549Z,82.26
2019-03-17T10:06:24.561Z,82.26
2019-03-17T10:08:17.492Z,82.45
2019-03-17T10:09:17.498Z,82.35
2019-03-17T10:11:10.821Z,80.73
2019-03-17T10:12:10.416Z,79.68
2019-03-17T10:14:03.337Z,79.78
2019-03-17T10:15:03.333Z,79.59
2019-03-17T10:16:56.732Z,80.73
2019-03-17T10:17:56.751Z,79.59
2019-03-17T10:19:49.664Z,79.88
2019-03-17T10:20:49.667Z,79.78
2019-03-17T10:22:42.580Z,79.78
2019-03-17T10:23:42.719Z,80.07
2019-03-17T10:25:36.048Z,80.07
2019-03-17T10:26:35.501Z,79.59
2019-03-17T10:28:28.918Z,78.73
2019-03-17T10:29:28.926Z,78.16
2019-03-17T10:31:21.834Z,79.68
2019-03-17T10:32:21.849Z,79.49
2019-03-17T10:34:14.788Z,79.78
2019-03-17T10:35:14.769Z,79.78
2019-03-17T10:37:07.672Z,79.59
2019-03-17T10:38:07.687Z,79.02
2019-03-17T10:40:00.609Z,79.59
2019-03-17T10:41:00.601Z,79.49
2019-03-17T10:42:54.113Z,78.73
2019-03-17T10:43:54.120Z,79.82
2019-03-17T10:45:47.028Z,79.63
2019-03-17T10:46:47.041Z,78.30
2019-03-17T10:48:39.954Z,78.10
2019-03-17T10:49:39.961Z,77.72
2019-03-17T10:51:33.448Z,77.44
2019-03-17T10:52:33.512Z,77.53
2019-03-17T10:54:26.784Z,77.97
2019-03-17T10:55:26.793Z,77.20
2019-03-17T10:57:20.208Z,77.01
2019-03-17T10:58:20.209Z,77.30
2019-03-17T11:00:13.426Z,77.74
2019-03-17T11:01:13.153Z,77.74
2019-03-17T11:03:06.048Z,79.02
2019-03-17T11:04:06.049Z,78.92
2019-03-17T11:05:59.448Z,78.06
2019-03-17T11:06:59.461Z,77.45
2019-03-17T11:08:52.867Z,77.93
2019-03-17T11:09:52.873Z,77.55
2019-03-17T11:11:45.780Z,76.31
2019-03-17T11:12:45.859Z,76.82
2019-03-17T11:14:39.394Z,76.40
2019-03-17T11:15:39.407Z,76.69
2019-03-17T11:17:32.317Z,74.31
2019-03-17T11:18:32.320Z,74.60
2019-03-17T11:20:25.718Z,76.03
2019-03-17T11:21:25.731Z,75.74
2019-03-17T11:23:18.643Z,74.40
2019-03-17T11:24:18.867Z,75.16
2019-03-17T11:26:11.556Z,74.31
2019-03-17T11:27:11.570Z,74.40
2019-03-17T11:29:04.975Z,74.31
2019-03-17T11:30:04.987Z,74.21
2019-03-17T11:31:58.378Z,73.36
2019-03-17T11:32:58.393Z,73.17
2019-03-17T11:34:51.379Z,73.99
2019-03-17T11:35:51.308Z,74.50
2019-03-17T11:37:44.221Z,74.69
2019-03-17T11:38:44.229Z,74.88
2019-03-17T11:40:37.129Z,74.40
2019-03-17T11:41:37.169Z,74.79
2019-03-17T11:43:30.054Z,74.60
2019-03-17T11:44:30.061Z,74.31
2019-03-17T11:46:22.963Z,74.69
2019-03-17T11:47:22.975Z,74.50
2019-03-17T11:49:16.381Z,74.79
2019-03-17T11:50:16.405Z,74.50
2019-03-17T11:52:09.290Z,74.50
2019-03-17T11:53:09.309Z,74.60
2019-03-17T11:55:02.216Z,74.79
2019-03-17T11:56:02.225Z,75.07
2019-03-17T11:57:55.656Z,75.36
2019-03-17T11:58:55.665Z,75.07
2019-03-17T12:00:48.571Z,74.69
2019-03-17T12:01:48.585Z,75.64
2019-03-17T12:03:41.991Z,76.73
2019-03-17T12:04:41.994Z,76.54
2019-03-17T12:06:34.903Z,77.01
2019-03-17T12:07:34.914Z,75.96
2019-03-17T12:09:29.276Z,75.81
2019-03-17T12:10:27.831Z,75.43
2019-03-17T12:12:22.229Z,74.48
2019-03-17T12:13:22.243Z,74.29
2019-03-17T12:15:15.156Z,74.67
2019-03-17T12:16:15.162Z,74.77
2019-03-17T12:18:08.073Z,75.11
2019-03-17T12:19:08.082Z,76.64
2019-03-17T12:21:01.502Z,79.07
2019-03-17T12:22:09.097Z,79.64
2019-03-17T12:23:54.404Z,82.75
2019-03-17T12:24:54.412Z,82.18
2019-03-17T12:26:47.315Z,82.70
2019-03-17T12:27:47.327Z,80.80
2019-03-17T12:29:40.238Z,80.42
2019-03-17T12:30:40.244Z,82.23
2019-03-17T12:32:33.144Z,80.90
2019-03-17T12:33:33.158Z,81.95
2019-03-17T12:35:26.075Z,78.80
2019-03-17T12:36:26.070Z,78.71
2019-03-17T12:38:18.983Z,78.71
2019-03-17T12:39:18.985Z,78.80
2019-03-17T12:41:12.379Z,79.28
2019-03-17T12:42:12.397Z,78.90
2019-03-17T12:44:05.303Z,78.52
2019-03-17T12:45:05.311Z,77.85
2019-03-17T12:46:58.709Z,78.14
2019-03-17T12:47:58.726Z,77.76
2019-03-17T12:49:51.630Z,76.90
2019-03-17T12:50:51.631Z,77.37
2019-03-17T12:52:45.039Z,77.28
2019-03-17T12:53:45.052Z,77.61
2019-03-17T12:55:38.453Z,77.89
2019-03-17T12:56:38.461Z,76.65
2019-03-17T12:58:31.867Z,76.27
2019-03-17T12:59:31.873Z,77.51
2019-03-17T13:01:25.269Z,75.89
2019-03-17T13:02:25.284Z,75.70
2019-03-17T13:04:18.702Z,75.36
2019-03-17T13:05:18.693Z,75.74
2019-03-17T13:07:11.596Z,75.26
2019-03-17T13:08:11.609Z,75.16
2019-03-17T13:10:15.121Z,75.36
2019-03-17T13:11:05.021Z,73.93
2019-03-17T13:12:58.421Z,74.21
2019-03-17T13:13:58.434Z,73.96
2019-03-17T13:15:51.839Z,74.54
2019-03-17T13:16:51.844Z,75.49
2019-03-17T13:18:44.783Z,74.67
2019-03-17T13:19:44.758Z,73.91
2019-03-17T13:21:37.664Z,71.81
2019-03-17T13:22:37.677Z,69.71
2019-03-17T13:24:30.593Z,70.95
2019-03-17T13:25:30.599Z,69.71
2019-03-17T13:27:23.503Z,69.71
2019-03-17T13:28:23.514Z,70.19
2019-03-17T13:30:16.427Z,69.71
2019-03-17T13:31:16.433Z,68.28
2019-03-17T13:33:09.340Z,69.90
2019-03-17T13:34:09.360Z,70.28
2019-03-17T13:36:02.279Z,69.43
2019-03-17T13:37:02.274Z,70.28
2019-03-17T13:38:55.188Z,68.18
2019-03-17T13:39:55.193Z,68.38
2019-03-17T13:41:48.118Z,67.42
2019-03-17T13:42:48.142Z,67.90
2019-03-17T13:44:41.064Z,66.47
2019-03-17T13:45:41.057Z,66.47
2019-03-17T13:47:33.964Z,67.48
2019-03-17T13:48:33.977Z,68.34
2019-03-17T13:50:26.891Z,68.12
2019-03-17T13:51:26.896Z,68.30
2019-03-17T13:53:22.722Z,70.12
2019-03-17T13:54:19.817Z,71.42
2019-03-17T13:56:12.726Z,72.81
2019-03-17T13:57:12.751Z,74.20
2019-03-17T13:59:06.608Z,77.01
2019-03-17T14:00:05.649Z,78.91
2019-03-17T14:01:58.550Z,82.58
2019-03-17T14:02:58.565Z,83.62
2019-03-17T14:04:51.474Z,84.58
2019-03-17T14:05:51.479Z,85.81
2019-03-17T14:07:44.378Z,88.28
2019-03-17T14:08:44.388Z,88.85
2019-03-17T14:10:41.225Z,89.14
2019-03-17T14:11:37.304Z,89.61
2019-03-17T14:13:30.201Z,89.56
2019-03-17T14:14:30.211Z,88.90
2019-03-17T14:16:23.115Z,88.90
2019-03-17T14:17:23.121Z,88.71
2019-03-17T14:19:16.030Z,86.52
2019-03-17T14:20:16.036Z,85.95
2019-03-17T14:22:08.938Z,85.52
2019-03-17T14:23:08.953Z,84.38
2019-03-17T14:25:02.349Z,84.66
2019-03-17T14:26:02.354Z,83.81
2019-03-17T14:27:55.262Z,82.09
2019-03-17T14:28:55.270Z,81.85
2019-03-17T14:30:48.671Z,81.18
2019-03-17T14:31:48.674Z,80.61
2019-03-17T14:33:41.592Z,79.66
2019-03-17T14:34:41.604Z,79.09
2019-03-17T14:36:34.515Z,79.47
2019-03-17T14:37:34.519Z,80.13
2019-03-17T14:39:27.468Z,79.60
2019-03-17T14:40:27.428Z,80.08
2019-03-17T14:42:20.334Z,79.51
2019-03-17T14:43:20.345Z,78.94
2019-03-17T14:45:13.255Z,77.61
2019-03-17T14:46:13.266Z,78.08
2019-03-17T14:48:06.167Z,78.41
2019-03-17T14:49:06.179Z,77.93
2019-03-17T14:50:59.084Z,75.84
2019-03-17T14:51:59.089Z,75.64
2019-03-17T14:53:51.988Z,75.74
2019-03-17T14:54:52.001Z,76.12
2019-03-17T14:56:44.910Z,75.07
2019-03-17T14:57:44.918Z,74.79
2019-03-17T14:59:37.848Z,75.07
2019-03-17T15:00:37.850Z,75.84
2019-03-17T15:02:30.755Z,75.64
2019-03-17T15:03:30.769Z,76.21
2019-03-17T15:05:25.301Z,75.64
2019-03-17T15:06:24.174Z,74.88
2019-03-17T15:08:17.080Z,76.03
2019-03-17T15:09:17.092Z,75.55
2019-03-17T15:11:10.493Z,72.50
2019-03-17T15:12:10.501Z,73.17
2019-03-17T15:14:03.393Z,74.12
2019-03-17T15:15:03.414Z,73.51
2019-03-17T15:16:56.327Z,74.40
2019-03-17T15:17:56.427Z,74.31
2019-03-17T15:19:49.241Z,75.07
2019-03-17T15:20:49.245Z,74.31
2019-03-17T15:22:42.219Z,74.50
2019-03-17T15:23:42.158Z,74.02
2019-03-17T15:25:35.068Z,73.93
2019-03-17T15:26:35.083Z,73.58
2019-03-17T15:28:27.976Z,73.45
2019-03-17T15:29:27.986Z,72.69
2019-03-17T15:31:20.895Z,72.69
2019-03-17T15:32:20.906Z,72.60
2019-03-17T15:34:13.803Z,74.21
2019-03-17T15:35:13.820Z,73.93
2019-03-17T15:37:06.748Z,74.25
2019-03-17T15:38:06.741Z,70.82
2019-03-17T15:39:59.642Z,70.50
2019-03-17T15:40:59.643Z,69.07
2019-03-17T15:42:53.039Z,70.78
2019-03-17T15:43:53.051Z,70.40
2019-03-17T15:45:45.968Z,70.88
2019-03-17T15:46:45.975Z,70.88
2019-03-17T15:48:38.873Z,71.26
2019-03-17T15:49:38.877Z,69.89
2019-03-17T15:51:31.795Z,70.27
2019-03-17T15:52:31.798Z,71.22
2019-03-17T15:54:24.799Z,72.17
2019-03-17T15:55:24.709Z,72.65
2019-03-17T15:57:17.620Z,73.89
2019-03-17T15:58:17.626Z,73.80
2019-03-17T16:00:10.537Z,74.37
2019-03-17T16:01:10.561Z,74.27
2019-03-17T16:03:03.443Z,75.23
2019-03-17T16:04:03.455Z,75.04
2019-03-17T16:05:57.404Z,74.43
2019-03-17T16:06:57.409Z,73.89
2019-03-17T16:08:50.313Z,74.65
2019-03-17T16:09:50.326Z,74.84
2019-03-17T16:11:43.231Z,75.32
2019-03-17T16:12:43.239Z,75.32
2019-03-17T16:14:36.176Z,75.60
2019-03-17T16:15:36.153Z,75.79
2019-03-17T16:17:29.061Z,75.04
2019-03-17T16:18:29.068Z,74.75
2019-03-17T16:20:21.978Z,74.65
2019-03-17T16:21:21.982Z,74.94
2019-03-17T16:23:14.886Z,74.04
2019-03-17T16:24:14.911Z,74.14
2019-03-17T16:26:07.806Z,75.28
2019-03-17T16:27:07.809Z,75.85
2019-03-17T16:29:00.708Z,76.14
2019-03-17T16:30:00.720Z,76.52
2019-03-17T16:31:53.628Z,76.81
2019-03-17T16:32:53.632Z,76.90
2019-03-17T16:34:46.541Z,73.47
2019-03-17T16:35:46.635Z,74.43
2019-03-17T16:37:39.456Z,73.44
2019-03-17T16:38:39.459Z,73.25
2019-03-17T16:40:32.434Z,72.86
2019-03-17T16:41:42.859Z,71.63
2019-03-17T16:43:25.269Z,71.06
2019-03-17T16:44:25.356Z,72.01
2019-03-17T16:46:18.205Z,70.77
2019-03-17T16:47:18.193Z,70.39
2019-03-17T16:49:12.085Z,70.58
2019-03-17T16:50:12.103Z,71.69
2019-03-17T16:52:05.497Z,70.93
2019-03-17T16:53:05.502Z,71.12
2019-03-17T16:54:58.404Z,71.31
2019-03-17T16:55:58.412Z,71.12
2019-03-17T16:57:51.324Z,71.02
2019-03-17T16:58:51.327Z,71.88
2019-03-17T17:00:44.726Z,72.35
2019-03-17T17:01:44.738Z,72.16
2019-03-17T17:03:37.638Z,72.74
2019-03-17T17:04:37.639Z,73.30
2019-03-17T17:06:31.045Z,73.69
2019-03-17T17:07:31.047Z,74.16
2019-03-17T17:09:23.959Z,74.82
2019-03-17T17:10:24.036Z,74.44
2019-03-17T17:12:16.876Z,74.73
2019-03-17T17:13:16.879Z,74.92
2019-03-17T17:15:09.794Z,74.63
2019-03-17T17:16:09.797Z,75.02
2019-03-17T17:18:03.198Z,75.30
2019-03-17T17:19:03.209Z,74.67
2019-03-17T17:20:56.118Z,74.01
2019-03-17T17:21:58.557Z,74.29
2019-03-17T17:23:49.099Z,74.29
2019-03-17T17:24:49.029Z,74.58
2019-03-17T17:26:42.935Z,75.15
2019-03-17T17:27:42.938Z,75.05
2019-03-17T17:29:36.356Z,74.96
2019-03-17T17:30:36.353Z,74.96
2019-03-17T17:32:29.272Z,74.96
2019-03-17T17:33:29.264Z,74.87
2019-03-17T17:35:22.174Z,75.15
2019-03-17T17:36:22.174Z,74.96
2019-03-17T17:38:15.072Z,74.87
2019-03-17T17:39:15.089Z,74.58
2019-03-17T17:41:10.976Z,75.53
2019-03-17T17:42:10.167Z,75.59
2019-03-17T17:44:01.388Z,75.78
2019-03-17T17:45:01.398Z,75.78
2019-03-17T17:46:54.304Z,76.06
2019-03-17T17:47:54.363Z,75.87
2019-03-17T17:49:47.210Z,75.87
2019-03-17T17:50:47.321Z,75.68
2019-03-17T17:52:40.126Z,76.54
2019-03-17T17:53:40.138Z,76.73
2019-03-17T17:55:33.038Z,77.15
2019-03-17T17:56:33.039Z,76.76
2019-03-17T17:58:26.434Z,76.73
2019-03-17T17:59:26.452Z,76.67
2019-03-17T18:01:19.852Z,76.35
2019-03-17T18:02:19.853Z,76.35
2019-03-17T18:04:12.751Z,76.57
2019-03-17T18:05:12.763Z,76.57
2019-03-17T18:07:06.163Z,76.39
2019-03-17T18:08:06.251Z,76.39
2019-03-17T18:09:59.553Z,76.48
2019-03-17T18:10:59.575Z,76.86
2019-03-17T18:12:52.993Z,76.86
2019-03-17T18:13:52.978Z,76.86
2019-03-17T18:15:46.383Z,76.86
2019-03-17T18:16:46.387Z,76.92
2019-03-17T18:18:39.827Z,76.82
2019-03-17T18:19:39.795Z,77.20
2019-03-17T18:21:33.198Z,77.58
2019-03-17T18:22:33.205Z,77.39
2019-03-17T18:24:26.593Z,77.30
2019-03-17T18:25:26.607Z,77.20
2019-03-17T18:27:20.006Z,77.49
2019-03-17T18:28:20.017Z,77.30
2019-03-17T18:30:13.412Z,77.49
2019-03-17T18:31:13.669Z,77.49
2019-03-17T18:33:06.830Z,77.58
2019-03-17T18:34:06.835Z,77.20